sensor_id;sensor_type;location;lat;lon;timestamp;P1;durP1;ratioP1;P2;durP2;ratioP2
13075;SDS011;6604;52.484;13.330;2022-11-03T07:48:18;9.20;;;3.63;;
13075;SDS011;6604;52.484;13.330;2022-11-03T07:50:45;6.87;;;3.33;;
13075;SDS011;6604;52.484;13.330;2022-11-03T07:53:13;5.50;;;3.60;;
13075;SDS011;6604;52.484;13.330;2022-11-03T07:55:39;9.37;;;3.80;;
13075;SDS011;6604;52.484;13.330;2022-11-03T07:58:12;7.47;;;3.53;;
13075;SDS011;6604;52.484;13.330;2022-11-03T08:00:41;6.53;;;3.50;;
13075;SDS011;6604;52.484;13.330;2022-11-03T08:03:12;10.87;;;3.60;;
13075;SDS011;6604;52.484;13.330;2022-11-03T08:05:42;4.60;;;3.60;;
13075;SDS011;6604;52.484;13.330;2022-11-03T08:08:08;9.17;;;3.43;;
13075;SDS011;6604;52.484;13.330;2022-11-03T08:10:35;9.33;;;4.00;;
13075;SDS011;6604;52.484;13.330;2022-11-03T08:13:02;6.63;;;3.40;;
13075;SDS011;6604;52.484;13.330;2022-11-03T08:15:28;5.67;;;3.50;;
13075;SDS011;6604;52.484;13.330;2022-11-03T08:17:54;4.93;;;3.47;;
13075;SDS011;6604;52.484;13.330;2022-11-03T08:20:21;9.07;;;3.77;;
13075;SDS011;6604;52.484;13.330;2022-11-03T08:22:49;9.70;;;3.43;;
13075;SDS011;6604;52.484;13.330;2022-11-03T08:25:15;7.50;;;3.93;;
13075;SDS011;6604;52.484;13.330;2022-11-03T08:27:41;6.77;;;3.60;;
13075;SDS011;6604;52.484;13.330;2022-11-03T08:30:08;9.17;;;4.10;;
13075;SDS011;6604;52.484;13.330;2022-11-03T08:32:35;8.47;;;3.73;;
13075;SDS011;6604;52.484;13.330;2022-11-03T08:35:01;12.70;;;3.87;;
13075;SDS011;6604;52.484;13.330;2022-11-03T08:37:28;11.70;;;4.03;;
13075;SDS011;6604;52.484;13.330;2022-11-03T08:39:55;12.47;;;3.73;;
13075;SDS011;6604;52.484;13.330;2022-11-03T08:42:22;5.67;;;3.33;;
13075;SDS011;6604;52.484;13.330;2022-11-03T08:44:48;10.13;;;3.63;;
13075;SDS011;6604;52.484;13.330;2022-11-03T08:47:15;9.50;;;3.60;;
13075;SDS011;6604;52.484;13.330;2022-11-03T08:49:41;6.63;;;3.63;;
13075;SDS011;6604;52.484;13.330;2022-11-03T08:52:08;3.50;;;2.80;;
13075;SDS011;6604;52.484;13.330;2022-11-03T08:54:34;6.33;;;3.20;;
13075;SDS011;6604;52.484;13.330;2022-11-03T08:57:02;7.77;;;3.30;;
13075;SDS011;6604;52.484;13.330;2022-11-03T08:59:28;5.73;;;3.20;;
13075;SDS011;6604;52.484;13.330;2022-11-03T09:01:55;7.13;;;2.70;;
13075;SDS011;6604;52.484;13.330;2022-11-03T09:04:22;5.63;;;3.10;;
13075;SDS011;6604;52.484;13.330;2022-11-03T09:06:48;6.13;;;2.97;;
13075;SDS011;6604;52.484;13.330;2022-11-03T09:09:15;4.63;;;3.20;;
13075;SDS011;6604;52.484;13.330;2022-11-03T09:11:43;41.07;;;8.37;;
13075;SDS011;6604;52.484;13.330;2022-11-03T09:14:11;22.60;;;5.40;;
13075;SDS011;6604;52.484;13.330;2022-11-03T09:16:38;21.30;;;6.23;;
13075;SDS011;6604;52.484;13.330;2022-11-03T09:19:04;15.97;;;4.93;;
13075;SDS011;6604;52.484;13.330;2022-11-03T09:21:30;32.57;;;7.60;;
13075;SDS011;6604;52.484;13.330;2022-11-03T09:23:57;18.00;;;5.53;;
13075;SDS011;6604;52.484;13.330;2022-11-03T09:26:24;12.70;;;3.43;;
13075;SDS011;6604;52.484;13.330;2022-11-03T09:28:50;6.47;;;3.27;;
13075;SDS011;6604;52.484;13.330;2022-11-03T09:31:18;11.47;;;4.10;;
13075;SDS011;6604;52.484;13.330;2022-11-03T09:33:44;19.17;;;4.47;;
13075;SDS011;6604;52.484;13.330;2022-11-03T09:36:11;9.70;;;2.80;;
13075;SDS011;6604;52.484;13.330;2022-11-03T09:38:37;6.10;;;2.47;;
13075;SDS011;6604;52.484;13.330;2022-11-03T09:41:03;8.90;;;2.50;;
13075;SDS011;6604;52.484;13.330;2022-11-03T09:43:30;5.13;;;2.40;;
13075;SDS011;6604;52.484;13.330;2022-11-03T09:45:57;5.57;;;2.37;;
13075;SDS011;6604;52.484;13.330;2022-11-03T09:48:25;5.80;;;2.20;;
13075;SDS011;6604;52.484;13.330;2022-11-03T09:50:52;5.53;;;2.40;;
13075;SDS011;6604;52.484;13.330;2022-11-03T09:53:19;8.07;;;2.37;;
13075;SDS011;6604;52.484;13.330;2022-11-03T09:55:46;6.70;;;2.80;;
13075;SDS011;6604;52.484;13.330;2022-11-03T09:58:13;5.90;;;2.67;;
13075;SDS011;6604;52.484;13.330;2022-11-03T10:00:40;6.17;;;2.30;;
13075;SDS011;6604;52.484;13.330;2022-11-03T10:03:08;8.10;;;2.80;;
13075;SDS011;6604;52.484;13.330;2022-11-03T10:05:37;5.47;;;2.33;;
13075;SDS011;6604;52.484;13.330;2022-11-03T10:08:05;5.57;;;2.47;;
13075;SDS011;6604;52.484;13.330;2022-11-03T10:10:32;6.67;;;2.23;;
13075;SDS011;6604;52.484;13.330;2022-11-03T10:12:59;6.77;;;2.57;;
13075;SDS011;6604;52.484;13.330;2022-11-03T10:15:26;3.83;;;2.43;;
13075;SDS011;6604;52.484;13.330;2022-11-03T10:17:53;8.40;;;2.47;;
13075;SDS011;6604;52.484;13.330;2022-11-03T10:20:20;28.73;;;5.83;;
13075;SDS011;6604;52.484;13.330;2022-11-03T10:22:50;17.00;;;3.60;;
13075;SDS011;6604;52.484;13.330;2022-11-03T10:25:28;38.20;;;5.83;;
13075;SDS011;6604;52.484;13.330;2022-11-03T10:28:11;54.30;;;7.97;;
13075;SDS011;6604;52.484;13.330;2022-11-03T10:30:51;42.97;;;6.60;;
13075;SDS011;6604;52.484;13.330;2022-11-03T10:33:25;43.20;;;6.67;;
13075;SDS011;6604;52.484;13.330;2022-11-03T10:35:52;19.60;;;4.20;;
13075;SDS011;6604;52.484;13.330;2022-11-03T10:38:21;27.57;;;6.20;;
13075;SDS011;6604;52.484;13.330;2022-11-03T10:40:49;36.47;;;6.30;;
13075;SDS011;6604;52.484;13.330;2022-11-03T10:43:16;38.37;;;7.90;;
13075;SDS011;6604;52.484;13.330;2022-11-03T10:45:42;68.10;;;8.73;;
13075;SDS011;6604;52.484;13.330;2022-11-03T10:48:09;42.97;;;7.70;;
13075;SDS011;6604;52.484;13.330;2022-11-03T10:50:36;33.53;;;6.77;;
13075;SDS011;6604;52.484;13.330;2022-11-03T10:53:04;34.30;;;5.70;;
13075;SDS011;6604;52.484;13.330;2022-11-03T10:55:32;37.27;;;6.13;;
13075;SDS011;6604;52.484;13.330;2022-11-03T10:57:59;25.20;;;4.47;;
13075;SDS011;6604;52.484;13.330;2022-11-03T11:00:25;15.63;;;3.50;;
13075;SDS011;6604;52.484;13.330;2022-11-03T11:02:53;9.83;;;3.13;;
13075;SDS011;6604;52.484;13.330;2022-11-03T11:05:22;15.83;;;4.20;;
13075;SDS011;6604;52.484;13.330;2022-11-03T11:07:49;11.80;;;3.37;;
13075;SDS011;6604;52.484;13.330;2022-11-03T11:10:17;56.80;;;10.10;;
13075;SDS011;6604;52.484;13.330;2022-11-03T11:15:37;6.70;;;2.80;;
13075;SDS011;6604;52.484;13.330;2022-11-03T11:18:04;11.40;;;3.97;;
13075;SDS011;6604;52.484;13.330;2022-11-03T11:20:34;32.03;;;7.57;;
13075;SDS011;6604;52.484;13.330;2022-11-03T11:26:04;8.87;;;2.80;;
13075;SDS011;6604;52.484;13.330;2022-11-03T11:28:31;11.03;;;3.53;;
13075;SDS011;6604;52.484;13.330;2022-11-03T11:37:30;19.37;;;4.90;;
13075;SDS011;6604;52.484;13.330;2022-11-03T11:39:43;22.20;;;3.80;;
13075;SDS011;6604;52.484;13.330;2022-11-03T11:42:10;14.53;;;4.40;;
13075;SDS011;6604;52.484;13.330;2022-11-03T11:44:50;21.77;;;5.07;;
13075;SDS011;6604;52.484;13.330;2022-11-03T11:47:25;14.70;;;3.70;;
13075;SDS011;6604;52.484;13.330;2022-11-03T11:49:59;18.30;;;4.23;;
13075;SDS011;6604;52.484;13.330;2022-11-03T11:52:29;14.10;;;3.13;;
13075;SDS011;6604;52.484;13.330;2022-11-03T11:54:55;12.87;;;2.83;;
13075;SDS011;6604;52.484;13.330;2022-11-03T11:57:21;10.17;;;3.60;;
13075;SDS011;6604;52.484;13.330;2022-11-03T11:59:49;13.97;;;3.97;;
13075;SDS011;6604;52.484;13.330;2022-11-03T12:02:17;11.67;;;3.73;;
13075;SDS011;6604;52.484;13.330;2022-11-03T12:04:45;17.10;;;3.87;;
13075;SDS011;6604;52.484;13.330;2022-11-03T12:07:12;8.80;;;2.70;;
13075;SDS011;6604;52.484;13.330;2022-11-03T12:09:39;29.07;;;4.93;;
13075;SDS011;6604;52.484;13.330;2022-11-03T12:12:07;17.00;;;4.27;;
13075;SDS011;6604;52.484;13.330;2022-11-03T12:14:34;6.30;;;2.50;;
13075;SDS011;6604;52.484;13.330;2022-11-03T12:19:43;8.73;;;2.77;;
13075;SDS011;6604;52.484;13.330;2022-11-03T12:22:10;11.20;;;2.00;;
13075;SDS011;6604;52.484;13.330;2022-11-03T12:24:48;87.63;;;13.33;;
13075;SDS011;6604;52.484;13.330;2022-11-03T12:30:00;81.57;;;11.87;;
13075;SDS011;6604;52.484;13.330;2022-11-03T12:32:27;65.50;;;9.50;;
13075;SDS011;6604;52.484;13.330;2022-11-03T12:34:54;111.47;;;16.93;;
13075;SDS011;6604;52.484;13.330;2022-11-03T12:37:20;88.20;;;12.23;;
13075;SDS011;6604;52.484;13.330;2022-11-03T12:39:48;49.03;;;8.80;;
13075;SDS011;6604;52.484;13.330;2022-11-03T12:42:14;29.77;;;5.83;;
13075;SDS011;6604;52.484;13.330;2022-11-03T12:44:41;61.17;;;9.37;;
13075;SDS011;6604;52.484;13.330;2022-11-03T12:47:07;58.77;;;9.70;;
13075;SDS011;6604;52.484;13.330;2022-11-03T12:49:34;23.20;;;4.93;;
13075;SDS011;6604;52.484;13.330;2022-11-03T12:52:00;69.23;;;10.13;;
13075;SDS011;6604;52.484;13.330;2022-11-03T12:54:30;64.63;;;10.23;;
13075;SDS011;6604;52.484;13.330;2022-11-03T12:56:58;39.33;;;7.00;;
13075;SDS011;6604;52.484;13.330;2022-11-03T12:59:25;85.93;;;12.97;;
13075;SDS011;6604;52.484;13.330;2022-11-03T13:01:51;69.90;;;11.40;;
13075;SDS011;6604;52.484;13.330;2022-11-03T13:04:17;39.33;;;6.17;;
13075;SDS011;6604;52.484;13.330;2022-11-03T13:06:44;8.40;;;2.30;;
13075;SDS011;6604;52.484;13.330;2022-11-03T13:09:10;5.40;;;2.07;;
13075;SDS011;6604;52.484;13.330;2022-11-03T13:11:37;3.63;;;2.00;;
13075;SDS011;6604;52.484;13.330;2022-11-03T13:14:22;4.57;;;2.17;;
13075;SDS011;6604;52.484;13.330;2022-11-03T13:16:50;6.10;;;2.33;;
13075;SDS011;6604;52.484;13.330;2022-11-03T13:19:16;17.60;;;4.47;;
13075;SDS011;6604;52.484;13.330;2022-11-03T13:21:44;17.80;;;4.53;;
13075;SDS011;6604;52.484;13.330;2022-11-03T13:24:10;6.77;;;2.63;;
13075;SDS011;6604;52.484;13.330;2022-11-03T13:26:37;7.67;;;2.73;;
13075;SDS011;6604;52.484;13.330;2022-11-03T13:29:03;12.60;;;2.87;;
13075;SDS011;6604;52.484;13.330;2022-11-03T13:31:31;19.60;;;4.63;;
13075;SDS011;6604;52.484;13.330;2022-11-03T13:33:58;27.17;;;5.80;;
13075;SDS011;6604;52.484;13.330;2022-11-03T13:36:24;38.93;;;6.77;;
13075;SDS011;6604;52.484;13.330;2022-11-03T13:38:51;26.70;;;5.60;;
13075;SDS011;6604;52.484;13.330;2022-11-03T13:41:17;16.00;;;4.73;;
13075;SDS011;6604;52.484;13.330;2022-11-03T13:43:43;17.23;;;3.80;;
13075;SDS011;6604;52.484;13.330;2022-11-03T13:46:10;16.57;;;4.50;;
13075;SDS011;6604;52.484;13.330;2022-11-03T13:48:38;47.10;;;9.33;;
13075;SDS011;6604;52.484;13.330;2022-11-03T13:51:04;22.57;;;5.10;;
13075;SDS011;6604;52.484;13.330;2022-11-03T13:53:31;35.63;;;5.97;;
13075;SDS011;6604;52.484;13.330;2022-11-03T13:55:57;39.70;;;6.33;;
13075;SDS011;6604;52.484;13.330;2022-11-03T13:58:24;47.90;;;7.00;;
13075;SDS011;6604;52.484;13.330;2022-11-03T14:00:50;5.47;;;2.33;;
13075;SDS011;6604;52.484;13.330;2022-11-03T14:03:17;5.73;;;2.47;;
13075;SDS011;6604;52.484;13.330;2022-11-03T14:05:45;2.23;;;1.60;;
13075;SDS011;6604;52.484;13.330;2022-11-03T14:08:11;4.20;;;2.00;;
13075;SDS011;6604;52.484;13.330;2022-11-03T14:10:37;4.63;;;2.13;;
13075;SDS011;6604;52.484;13.330;2022-11-03T14:13:04;2.73;;;1.80;;
13075;SDS011;6604;52.484;13.330;2022-11-03T14:15:29;7.53;;;2.27;;
13075;SDS011;6604;52.484;13.330;2022-11-03T14:17:56;6.03;;;2.37;;
13075;SDS011;6604;52.484;13.330;2022-11-03T14:20:22;4.70;;;2.20;;
13075;SDS011;6604;52.484;13.330;2022-11-03T14:22:50;4.83;;;2.13;;
13075;SDS011;6604;52.484;13.330;2022-11-03T14:25:16;5.30;;;2.47;;
13075;SDS011;6604;52.484;13.330;2022-11-03T14:27:44;5.70;;;2.50;;
13075;SDS011;6604;52.484;13.330;2022-11-03T14:30:10;2.80;;;1.90;;
13075;SDS011;6604;52.484;13.330;2022-11-03T14:32:37;7.13;;;2.43;;
13075;SDS011;6604;52.484;13.330;2022-11-03T14:35:04;6.33;;;2.20;;
13075;SDS011;6604;52.484;13.330;2022-11-03T14:37:31;6.93;;;2.60;;
13075;SDS011;6604;52.484;13.330;2022-11-03T14:39:59;6.00;;;2.00;;
13075;SDS011;6604;52.484;13.330;2022-11-03T14:42:25;6.63;;;2.50;;
13075;SDS011;6604;52.484;13.330;2022-11-03T14:44:51;6.33;;;2.37;;
13075;SDS011;6604;52.484;13.330;2022-11-03T14:47:17;4.83;;;2.13;;
13075;SDS011;6604;52.484;13.330;2022-11-03T14:49:45;5.73;;;2.33;;
13075;SDS011;6604;52.484;13.330;2022-11-03T14:52:13;9.00;;;2.60;;
13075;SDS011;6604;52.484;13.330;2022-11-03T14:54:41;7.13;;;2.60;;
13075;SDS011;6604;52.484;13.330;2022-11-03T14:57:09;6.13;;;2.27;;
13075;SDS011;6604;52.484;13.330;2022-11-03T14:59:47;6.77;;;2.33;;
13075;SDS011;6604;52.484;13.330;2022-11-03T15:02:14;4.20;;;2.30;;
13075;SDS011;6604;52.484;13.330;2022-11-03T15:04:40;8.50;;;2.33;;
13075;SDS011;6604;52.484;13.330;2022-11-03T15:07:07;7.00;;;3.00;;
13075;SDS011;6604;52.484;13.330;2022-11-03T15:09:33;5.03;;;2.80;;
13075;SDS011;6604;52.484;13.330;2022-11-03T15:11:59;6.17;;;2.60;;
13075;SDS011;6604;52.484;13.330;2022-11-03T15:14:27;5.00;;;2.53;;
13075;SDS011;6604;52.484;13.330;2022-11-03T15:16:54;5.27;;;2.50;;
13075;SDS011;6604;52.484;13.330;2022-11-03T15:19:21;6.30;;;2.30;;
13075;SDS011;6604;52.484;13.330;2022-11-03T15:21:47;7.10;;;2.93;;
13075;SDS011;6604;52.484;13.330;2022-11-03T15:24:14;7.53;;;2.70;;
13075;SDS011;6604;52.484;13.330;2022-11-03T15:26:40;8.83;;;3.00;;
13075;SDS011;6604;52.484;13.330;2022-11-03T15:29:07;6.13;;;3.03;;
13075;SDS011;6604;52.484;13.330;2022-11-03T15:31:34;6.53;;;2.83;;
13075;SDS011;6604;52.484;13.330;2022-11-03T15:34:01;7.23;;;3.00;;
13075;SDS011;6604;52.484;13.330;2022-11-03T15:36:27;6.97;;;3.17;;
13075;SDS011;6604;52.484;13.330;2022-11-03T15:38:54;6.97;;;3.27;;
13075;SDS011;6604;52.484;13.330;2022-11-03T15:41:21;6.97;;;3.03;;
13075;SDS011;6604;52.484;13.330;2022-11-03T15:43:48;10.93;;;3.23;;
13075;SDS011;6604;52.484;13.330;2022-11-03T15:46:15;8.20;;;3.10;;
13075;SDS011;6604;52.484;13.330;2022-11-03T15:48:43;8.13;;;3.10;;
13075;SDS011;6604;52.484;13.330;2022-11-03T15:51:10;6.77;;;3.63;;
13075;SDS011;6604;52.484;13.330;2022-11-03T15:53:37;9.37;;;3.40;;
13075;SDS011;6604;52.484;13.330;2022-11-03T15:56:03;7.87;;;3.23;;
13075;SDS011;6604;52.484;13.330;2022-11-03T15:58:30;8.77;;;3.73;;
13075;SDS011;6604;52.484;13.330;2022-11-03T16:00:58;9.40;;;3.50;;
13075;SDS011;6604;52.484;13.330;2022-11-03T16:03:24;7.87;;;3.33;;
13075;SDS011;6604;52.484;13.330;2022-11-03T16:05:52;8.60;;;3.80;;
13075;SDS011;6604;52.484;13.330;2022-11-03T16:08:18;6.57;;;3.53;;
13075;SDS011;6604;52.484;13.330;2022-11-03T16:10:45;6.27;;;3.40;;
13075;SDS011;6604;52.484;13.330;2022-11-03T16:13:11;11.17;;;3.30;;
13075;SDS011;6604;52.484;13.330;2022-11-03T16:15:37;9.57;;;3.37;;
13075;SDS011;6604;52.484;13.330;2022-11-03T16:18:04;8.27;;;3.83;;
13075;SDS011;6604;52.484;13.330;2022-11-03T16:20:30;10.07;;;3.83;;
13075;SDS011;6604;52.484;13.330;2022-11-03T16:22:58;6.93;;;3.73;;
13075;SDS011;6604;52.484;13.330;2022-11-03T16:25:24;4.83;;;3.30;;
13075;SDS011;6604;52.484;13.330;2022-11-03T16:27:51;7.50;;;3.70;;
13075;SDS011;6604;52.484;13.330;2022-11-03T16:30:17;7.67;;;3.70;;
13075;SDS011;6604;52.484;13.330;2022-11-03T16:32:44;7.73;;;3.57;;
13075;SDS011;6604;52.484;13.330;2022-11-03T16:35:10;5.67;;;3.47;;
13075;SDS011;6604;52.484;13.330;2022-11-03T16:37:36;6.13;;;3.33;;
13075;SDS011;6604;52.484;13.330;2022-11-03T16:40:05;4.47;;;3.17;;
13075;SDS011;6604;52.484;13.330;2022-11-03T16:42:31;8.80;;;3.90;;
13075;SDS011;6604;52.484;13.330;2022-11-03T16:45:03;6.40;;;3.53;;
13075;SDS011;6604;52.484;13.330;2022-11-03T16:47:29;5.20;;;3.20;;
13075;SDS011;6604;52.484;13.330;2022-11-03T16:49:55;6.60;;;3.93;;
13075;SDS011;6604;52.484;13.330;2022-11-03T16:52:22;4.43;;;3.33;;
13075;SDS011;6604;52.484;13.330;2022-11-03T16:54:48;5.93;;;3.53;;
13075;SDS011;6604;52.484;13.330;2022-11-03T16:57:17;7.77;;;3.53;;
13075;SDS011;6604;52.484;13.330;2022-11-03T16:59:43;7.37;;;4.00;;
13075;SDS011;6604;52.484;13.330;2022-11-03T17:02:09;5.87;;;3.60;;
13075;SDS011;6604;52.484;13.330;2022-11-03T17:04:37;5.90;;;3.60;;
13075;SDS011;6604;52.484;13.330;2022-11-03T17:07:03;7.67;;;3.73;;
13075;SDS011;6604;52.484;13.330;2022-11-03T17:09:30;6.23;;;3.70;;
13075;SDS011;6604;52.484;13.330;2022-11-03T17:11:56;7.73;;;3.90;;
13075;SDS011;6604;52.484;13.330;2022-11-03T17:14:24;7.63;;;4.10;;
13075;SDS011;6604;52.484;13.330;2022-11-03T17:16:50;9.27;;;3.80;;
13075;SDS011;6604;52.484;13.330;2022-11-03T17:19:17;7.40;;;4.20;;
13075;SDS011;6604;52.484;13.330;2022-11-03T17:21:43;5.83;;;4.00;;
13075;SDS011;6604;52.484;13.330;2022-11-03T17:24:09;8.97;;;3.70;;
13075;SDS011;6604;52.484;13.330;2022-11-03T17:26:39;7.27;;;3.63;;
13075;SDS011;6604;52.484;13.330;2022-11-03T17:29:07;4.97;;;3.87;;
13075;SDS011;6604;52.484;13.330;2022-11-03T17:31:37;6.40;;;3.77;;
13075;SDS011;6604;52.484;13.330;2022-11-03T17:34:04;7.77;;;4.17;;
13075;SDS011;6604;52.484;13.330;2022-11-03T17:36:30;8.23;;;3.90;;
13075;SDS011;6604;52.484;13.330;2022-11-03T17:38:57;5.77;;;3.57;;
13075;SDS011;6604;52.484;13.330;2022-11-03T17:41:23;5.90;;;3.50;;
13075;SDS011;6604;52.484;13.330;2022-11-03T17:43:50;8.47;;;3.30;;
13075;SDS011;6604;52.484;13.330;2022-11-03T17:46:16;8.10;;;3.80;;
13075;SDS011;6604;52.484;13.330;2022-11-03T17:48:44;6.30;;;3.70;;
13075;SDS011;6604;52.484;13.330;2022-11-03T17:51:11;5.53;;;3.30;;
13075;SDS011;6604;52.484;13.330;2022-11-03T17:53:38;9.70;;;3.60;;
13075;SDS011;6604;52.484;13.330;2022-11-03T17:56:05;6.50;;;3.70;;
13075;SDS011;6604;52.484;13.330;2022-11-03T17:58:33;10.27;;;3.80;;
13075;SDS011;6604;52.484;13.330;2022-11-03T18:01:00;7.37;;;3.33;;
13075;SDS011;6604;52.484;13.330;2022-11-03T18:03:27;5.40;;;3.20;;
13075;SDS011;6604;52.484;13.330;2022-11-03T18:05:55;7.80;;;3.43;;
13075;SDS011;6604;52.484;13.330;2022-11-03T18:08:22;5.07;;;3.20;;
13075;SDS011;6604;52.484;13.330;2022-11-03T18:10:49;10.13;;;3.30;;
13075;SDS011;6604;52.484;13.330;2022-11-03T18:13:16;6.00;;;2.87;;
13075;SDS011;6604;52.484;13.330;2022-11-03T18:15:43;6.07;;;2.97;;
13075;SDS011;6604;52.484;13.330;2022-11-03T18:18:12;3.83;;;2.80;;
13075;SDS011;6604;52.484;13.330;2022-11-03T18:20:40;5.13;;;3.13;;
13075;SDS011;6604;52.484;13.330;2022-11-03T18:23:11;4.13;;;2.87;;
13075;SDS011;6604;52.484;13.330;2022-11-03T18:25:39;6.77;;;3.30;;
13075;SDS011;6604;52.484;13.330;2022-11-03T18:28:08;6.63;;;3.30;;
13075;SDS011;6604;52.484;13.330;2022-11-03T18:30:35;6.73;;;3.57;;
13075;SDS011;6604;52.484;13.330;2022-11-03T18:33:02;4.83;;;3.10;;
13075;SDS011;6604;52.484;13.330;2022-11-03T18:35:30;4.83;;;3.07;;
13075;SDS011;6604;52.484;13.330;2022-11-03T18:37:57;5.27;;;2.87;;
13075;SDS011;6604;52.484;13.330;2022-11-03T18:40:25;5.00;;;3.00;;
13075;SDS011;6604;52.484;13.330;2022-11-03T18:42:51;6.00;;;2.80;;
13075;SDS011;6604;52.484;13.330;2022-11-03T18:45:18;4.83;;;3.10;;
13075;SDS011;6604;52.484;13.330;2022-11-03T18:47:45;6.67;;;3.13;;
13075;SDS011;6604;52.484;13.330;2022-11-03T18:50:12;5.60;;;3.10;;
13075;SDS011;6604;52.484;13.330;2022-11-03T18:52:40;7.20;;;3.00;;
13075;SDS011;6604;52.484;13.330;2022-11-03T18:55:08;5.60;;;2.90;;
13075;SDS011;6604;52.484;13.330;2022-11-03T18:57:36;8.30;;;2.90;;
13075;SDS011;6604;52.484;13.330;2022-11-03T19:00:03;5.43;;;3.03;;
13075;SDS011;6604;52.484;13.330;2022-11-03T19:02:30;3.57;;;2.60;;
13075;SDS011;6604;52.484;13.330;2022-11-03T19:04:56;6.80;;;3.20;;
13075;SDS011;6604;52.484;13.330;2022-11-03T19:07:23;8.80;;;3.07;;
13075;SDS011;6604;52.484;13.330;2022-11-03T19:09:50;5.73;;;3.00;;
13075;SDS011;6604;52.484;13.330;2022-11-03T19:12:17;4.07;;;2.53;;
13075;SDS011;6604;52.484;13.330;2022-11-03T19:14:44;6.23;;;3.43;;
13075;SDS011;6604;52.484;13.330;2022-11-03T19:17:14;5.60;;;3.00;;
13075;SDS011;6604;52.484;13.330;2022-11-03T19:19:41;5.40;;;3.23;;
13075;SDS011;6604;52.484;13.330;2022-11-03T19:22:10;5.43;;;3.00;;
13075;SDS011;6604;52.484;13.330;2022-11-03T19:24:36;4.00;;;2.87;;
13075;SDS011;6604;52.484;13.330;2022-11-03T19:27:03;5.10;;;3.10;;
13075;SDS011;6604;52.484;13.330;2022-11-03T19:29:30;4.47;;;2.87;;
13075;SDS011;6604;52.484;13.330;2022-11-03T19:31:59;4.27;;;3.30;;
13075;SDS011;6604;52.484;13.330;2022-11-03T19:34:27;5.03;;;3.03;;
13075;SDS011;6604;52.484;13.330;2022-11-03T19:36:55;7.67;;;3.10;;
13075;SDS011;6604;52.484;13.330;2022-11-03T19:39:22;5.40;;;3.23;;
13075;SDS011;6604;52.484;13.330;2022-11-03T19:41:49;7.50;;;3.10;;
13075;SDS011;6604;52.484;13.330;2022-11-03T19:44:33;5.70;;;3.23;;
13075;SDS011;6604;52.484;13.330;2022-11-03T19:47:01;4.47;;;3.10;;
13075;SDS011;6604;52.484;13.330;2022-11-03T19:49:27;5.80;;;2.93;;
13075;SDS011;6604;52.484;13.330;2022-11-03T19:51:54;9.57;;;3.20;;
13075;SDS011;6604;52.484;13.330;2022-11-03T19:54:20;7.37;;;3.40;;
13075;SDS011;6604;52.484;13.330;2022-11-03T19:56:47;5.83;;;3.47;;
13075;SDS011;6604;52.484;13.330;2022-11-03T19:59:14;6.97;;;3.43;;
13075;SDS011;6604;52.484;13.330;2022-11-03T20:01:41;5.40;;;3.20;;
13075;SDS011;6604;52.484;13.330;2022-11-03T20:04:09;5.77;;;3.30;;
13075;SDS011;6604;52.484;13.330;2022-11-03T20:06:36;6.63;;;3.40;;
13075;SDS011;6604;52.484;13.330;2022-11-03T20:09:03;7.43;;;3.63;;
13075;SDS011;6604;52.484;13.330;2022-11-03T20:11:31;5.83;;;3.20;;
13075;SDS011;6604;52.484;13.330;2022-11-03T20:13:57;8.53;;;3.57;;
13075;SDS011;6604;52.484;13.330;2022-11-03T20:16:24;5.50;;;3.47;;
13075;SDS011;6604;52.484;13.330;2022-11-03T20:18:50;5.40;;;3.53;;
13075;SDS011;6604;52.484;13.330;2022-11-03T20:21:18;7.30;;;3.47;;
13075;SDS011;6604;52.484;13.330;2022-11-03T20:23:46;5.07;;;3.10;;
13075;SDS011;6604;52.484;13.330;2022-11-03T20:26:15;6.40;;;3.30;;
13075;SDS011;6604;52.484;13.330;2022-11-03T20:28:42;6.87;;;3.40;;
13075;SDS011;6604;52.484;13.330;2022-11-03T20:31:09;5.53;;;3.90;;
13075;SDS011;6604;52.484;13.330;2022-11-03T20:33:36;7.03;;;3.73;;
13075;SDS011;6604;52.484;13.330;2022-11-03T20:36:02;7.10;;;3.57;;
13075;SDS011;6604;52.484;13.330;2022-11-03T20:38:31;6.43;;;4.43;;
13075;SDS011;6604;52.484;13.330;2022-11-03T20:41:01;9.07;;;3.80;;
13075;SDS011;6604;52.484;13.330;2022-11-03T20:43:29;6.73;;;3.80;;
13075;SDS011;6604;52.484;13.330;2022-11-03T20:45:56;5.33;;;3.80;;
13075;SDS011;6604;52.484;13.330;2022-11-03T20:48:22;7.53;;;3.83;;
13075;SDS011;6604;52.484;13.330;2022-11-03T20:50:49;10.83;;;4.20;;
13075;SDS011;6604;52.484;13.330;2022-11-03T20:53:17;5.80;;;4.10;;
13075;SDS011;6604;52.484;13.330;2022-11-03T20:55:45;7.27;;;4.37;;
13075;SDS011;6604;52.484;13.330;2022-11-03T20:58:12;8.33;;;4.00;;
13075;SDS011;6604;52.484;13.330;2022-11-03T21:00:40;7.47;;;4.10;;
13075;SDS011;6604;52.484;13.330;2022-11-03T21:03:12;5.07;;;3.70;;
13075;SDS011;6604;52.484;13.330;2022-11-03T21:05:40;8.50;;;4.27;;
13075;SDS011;6604;52.484;13.330;2022-11-03T21:08:07;7.63;;;3.83;;
13075;SDS011;6604;52.484;13.330;2022-11-03T21:10:33;6.87;;;4.23;;
13075;SDS011;6604;52.484;13.330;2022-11-03T21:13:01;6.33;;;4.10;;
13075;SDS011;6604;52.484;13.330;2022-11-03T21:15:27;5.97;;;4.30;;
13075;SDS011;6604;52.484;13.330;2022-11-03T21:18:13;9.67;;;4.70;;
13075;SDS011;6604;52.484;13.330;2022-11-03T21:21:02;8.30;;;3.83;;
13075;SDS011;6604;52.484;13.330;2022-11-03T21:23:29;10.53;;;4.87;;
13075;SDS011;6604;52.484;13.330;2022-11-03T21:25:56;8.13;;;4.37;;
13075;SDS011;6604;52.484;13.330;2022-11-03T21:28:24;8.63;;;3.97;;
13075;SDS011;6604;52.484;13.330;2022-11-03T21:30:51;8.93;;;4.30;;
13075;SDS011;6604;52.484;13.330;2022-11-03T21:33:18;6.67;;;4.23;;
13075;SDS011;6604;52.484;13.330;2022-11-03T21:35:44;7.13;;;4.50;;
13075;SDS011;6604;52.484;13.330;2022-11-03T21:38:12;6.63;;;4.20;;
13075;SDS011;6604;52.484;13.330;2022-11-03T21:40:41;9.63;;;4.63;;
13075;SDS011;6604;52.484;13.330;2022-11-03T21:43:08;8.77;;;4.67;;
13075;SDS011;6604;52.484;13.330;2022-11-03T21:45:53;9.10;;;4.67;;
13075;SDS011;6604;52.484;13.330;2022-11-03T21:48:27;8.90;;;4.70;;
13075;SDS011;6604;52.484;13.330;2022-11-03T21:51:10;8.80;;;4.90;;
13075;SDS011;6604;52.484;13.330;2022-11-03T21:53:37;8.03;;;4.83;;
13075;SDS011;6604;52.484;13.330;2022-11-03T21:56:03;7.90;;;4.80;;
13075;SDS011;6604;52.484;13.330;2022-11-03T21:58:30;9.43;;;4.70;;
13075;SDS011;6604;52.484;13.330;2022-11-03T22:01:00;13.27;;;4.50;;
13075;SDS011;6604;52.484;13.330;2022-11-03T22:03:28;6.57;;;4.60;;
13075;SDS011;6604;52.484;13.330;2022-11-03T22:05:57;9.83;;;4.60;;
13075;SDS011;6604;52.484;13.330;2022-11-03T22:08:24;10.57;;;5.70;;
13075;SDS011;6604;52.484;13.330;2022-11-03T22:10:50;7.23;;;4.40;;
13075;SDS011;6604;52.484;13.330;2022-11-03T22:13:18;7.70;;;4.63;;
13075;SDS011;6604;52.484;13.330;2022-11-03T22:15:44;8.03;;;4.90;;
13075;SDS011;6604;52.484;13.330;2022-11-03T22:18:30;13.43;;;4.83;;
13075;SDS011;6604;52.484;13.330;2022-11-03T22:20:56;8.33;;;5.10;;
13075;SDS011;6604;52.484;13.330;2022-11-03T22:23:40;11.80;;;5.17;;
13075;SDS011;6604;52.484;13.330;2022-11-03T22:26:32;11.17;;;5.73;;
13075;SDS011;6604;52.484;13.330;2022-11-03T22:29:16;7.83;;;4.60;;
